Terminal Aerodrome Forecast
Issued by NWS Wilmington, NC

Home | Current Version | Previous Version | Text Only | Print | Product List | Glossary On
Versions: 1 2 3 4 5 6 7 8 9 10 11 12 13
000
FTUS42 KILM 271724
TAFMYR
TAF
KMYR 271724Z 2718/2818 36004KT P6SM SCT120
     FM272000 13004KT P6SM SCT050
     FM272300 VRB03KT P6SM BKN050
     FM281700 09009G20KT P6SM FEW250=

USA.gov is the U.S. government's official web portal to all federal, state and local government web resources and services.